Time;durP1;ratioP1;P1;durP2;ratioP2;P2;SDS_P1;SDS_P2;PMS_P1;PMS_P2;Temp;Humidity;BMP_temperature;BMP_pressure;BME280_temperature;BME280_humidity;BME280_pressure;Samples;Min_cycle;Max_cycle;Signal;HPM_P1;HPM_P2
2021/04/26 00:00:16;;;;;;;;;;;18.80;41.00;;;;;;505673;235;1035;-45
2021/04/26 00:02:18;;;;;;;;;;;18.80;41.10;;;;;;505406;235;1487;-45
2021/04/26 00:04:19;;;;;;;;;;;18.80;41.00;;;;;;505619;235;1084;-45
2021/04/26 00:06:20;;;;;;;;;;;18.80;40.90;;;;;;505343;235;1236;-45
2021/04/26 00:08:22;;;;;;;;;;;18.70;41.10;;;;;;505597;235;1068;-45
2021/04/26 00:10:23;;;;;;;;;;;18.70;41.10;;;;;;505667;235;1023;-45
2021/04/26 00:12:24;;;;;;;;;;;18.70;41.10;;;;;;505399;235;1211;-45
2021/04/26 00:14:25;;;;;;;;;;;18.70;41.10;;;;;;505427;235;1177;-45
2021/04/26 00:16:27;;;;;;;;;;;18.60;41.20;;;;;;505278;235;2201;-45
2021/04/26 00:18:28;;;;;;;;;;;18.60;41.30;;;;;;505925;235;1051;-45
2021/04/26 00:20:30;;;;;;;;;;;18.50;41.30;;;;;;505439;235;1157;-45
2021/04/26 00:22:31;;;;;;;;;;;18.60;41.40;;;;;;505356;235;1548;-45
2021/04/26 00:24:32;;;;;;;;;;;18.50;41.30;;;;;;505400;235;1043;-45
2021/04/26 00:26:33;;;;;;;;;;;18.50;41.40;;;;;;505412;235;1066;-45
2021/04/26 00:28:34;;;;;;;;;;;18.50;41.30;;;;;;505707;235;1453;-45
2021/04/26 00:30:36;;;;;;;;;;;18.50;41.30;;;;;;505615;235;1048;-45
2021/04/26 00:32:37;;;;;;;;;;;18.50;41.40;;;;;;505363;235;1144;-45
2021/04/26 00:34:39;;;;;;;;;;;18.50;41.40;;;;;;505338;235;1072;-45
2021/04/26 00:36:40;;;;;;;;;;;18.50;41.40;;;;;;505222;235;2182;-45
2021/04/26 00:38:41;;;;;;;;;;;18.50;41.40;;;;;;505437;235;1027;-45
2021/04/26 00:40:43;;;;;;;;;;;18.50;41.40;;;;;;505498;234;1223;-45
2021/04/26 00:42:44;;;;;;;;;;;18.50;41.30;;;;;;505243;235;1271;-45
2021/04/26 00:44:45;;;;;;;;;;;18.50;41.40;;;;;;505352;235;1196;-45
2021/04/26 00:46:46;;;;;;;;;;;18.40;41.40;;;;;;505630;235;1471;-45
2021/04/26 00:48:48;;;;;;;;;;;18.40;41.50;;;;;;505488;235;1056;-45
2021/04/26 00:50:49;;;;;;;;;;;18.40;41.50;;;;;;505810;235;1062;-45
2021/04/26 00:52:50;;;;;;;;;;;18.30;41.50;;;;;;505471;234;1220;-45
2021/04/26 00:54:51;;;;;;;;;;;18.40;41.50;;;;;;505336;235;2182;-45
2021/04/26 00:56:53;;;;;;;;;;;18.30;41.50;;;;;;505304;235;1275;-45
2021/04/26 00:58:54;;;;;;;;;;;18.30;41.50;;;;;;505360;235;1260;-45
2021/04/26 01:00:55;;;;;;;;;;;18.30;41.50;;;;;;505658;235;1149;-45
2021/04/26 01:02:57;;;;;;;;;;;18.30;41.60;;;;;;505861;235;1074;-45
2021/04/26 01:05:00;;;;;;;;;;;18.30;41.70;;;;;;505379;235;1063;-45
2021/04/26 01:06:59;;;;;;;;;;;18.30;41.60;;;;;;505304;235;2180;-45
2021/04/26 01:09:00;;;;;;;;;;;18.30;41.60;;;;;;505827;234;1062;-45
2021/04/26 01:11:02;;;;;;;;;;;18.30;41.50;;;;;;505353;235;1041;-45
2021/04/26 01:13:03;;;;;;;;;;;18.30;41.60;;;;;;505296;235;1124;-45
2021/04/26 01:15:04;;;;;;;;;;;18.30;41.60;;;;;;505403;235;2154;-45
2021/04/26 01:17:06;;;;;;;;;;;18.30;41.60;;;;;;505712;235;1058;-45
2021/04/26 01:19:07;;;;;;;;;;;18.20;41.70;;;;;;505408;235;1630;-45
2021/04/26 01:21:08;;;;;;;;;;;18.20;41.70;;;;;;505746;235;1049;-45
2021/04/26 01:23:10;;;;;;;;;;;18.20;41.70;;;;;;505412;235;1079;-45
2021/04/26 01:25:11;;;;;;;;;;;18.20;41.70;;;;;;505904;235;1048;-45
2021/04/26 01:27:12;;;;;;;;;;;18.20;41.70;;;;;;505683;235;1196;-45
2021/04/26 01:29:13;;;;;;;;;;;18.20;41.70;;;;;;505435;235;1166;-45
2021/04/26 01:31:15;;;;;;;;;;;18.20;41.70;;;;;;505351;235;1174;-45
2021/04/26 01:33:16;;;;;;;;;;;18.20;41.70;;;;;;505532;235;1045;-45
2021/04/26 01:35:17;;;;;;;;;;;18.20;41.70;;;;;;505684;235;2138;-45
2021/04/26 01:37:18;;;;;;;;;;;18.10;41.70;;;;;;505648;235;1314;-45
2021/04/26 01:39:20;;;;;;;;;;;18.20;41.70;;;;;;505396;235;1092;-45
2021/04/26 01:41:21;;;;;;;;;;;18.20;41.70;;;;;;505811;235;1167;-45
2021/04/26 01:43:23;;;;;;;;;;;18.10;41.70;;;;;;505474;235;1237;-45
2021/04/26 01:45:24;;;;;;;;;;;18.10;41.80;;;;;;505439;235;1166;-45
2021/04/26 01:47:25;;;;;;;;;;;18.10;41.80;;;;;;505737;235;1135;-45
2021/04/26 01:49:27;;;;;;;;;;;18.10;41.80;;;;;;505809;235;1049;-45
2021/04/26 01:51:28;;;;;;;;;;;18.10;41.80;;;;;;505693;235;1034;-45
2021/04/26 01:53:29;;;;;;;;;;;18.10;41.80;;;;;;505398;235;1027;-45
2021/04/26 01:55:30;;;;;;;;;;;18.10;41.80;;;;;;505726;235;2181;-45
2021/04/26 01:57:32;;;;;;;;;;;18.10;41.80;;;;;;505393;235;1084;-45
2021/04/26 01:59:33;;;;;;;;;;;18.00;41.80;;;;;;505404;235;1303;-45
2021/04/26 02:01:34;;;;;;;;;;;18.00;41.90;;;;;;505340;235;1080;-45
2021/04/26 02:03:35;;;;;;;;;;;18.00;41.90;;;;;;505850;235;1076;-45
2021/04/26 02:05:37;;;;;;;;;;;18.00;42.00;;;;;;505652;235;1106;-45
2021/04/26 02:07:38;;;;;;;;;;;18.00;42.00;;;;;;505592;235;1176;-45
2021/04/26 02:09:39;;;;;;;;;;;18.00;41.90;;;;;;505881;235;1106;-45
2021/04/26 02:11:41;;;;;;;;;;;18.00;41.90;;;;;;505772;235;1098;-44
2021/04/26 02:13:42;;;;;;;;;;;18.00;41.90;;;;;;505929;235;1085;-45
2021/04/26 02:15:43;;;;;;;;;;;18.00;41.90;;;;;;505463;235;2194;-45
2021/04/26 02:17:45;;;;;;;;;;;18.40;41.20;;;;;;505345;235;1192;-45
2021/04/26 02:19:46;;;;;;;;;;;18.70;40.30;;;;;;505403;235;1033;-45
2021/04/26 02:21:47;;;;;;;;;;;19.00;39.70;;;;;;505352;235;1068;-45
2021/04/26 02:23:48;;;;;;;;;;;19.20;39.30;;;;;;505442;235;999;-45
2021/04/26 02:25:50;;;;;;;;;;;19.30;39.00;;;;;;505584;235;1034;-45
2021/04/26 02:27:51;;;;;;;;;;;19.50;38.80;;;;;;505608;235;1058;-45
2021/04/26 02:29:52;;;;;;;;;;;19.50;38.60;;;;;;505668;235;1713;-45
2021/04/26 02:31:54;;;;;;;;;;;19.70;38.50;;;;;;505480;235;1099;-45
2021/04/26 02:33:55;;;;;;;;;;;19.70;38.30;;;;;;505929;235;1029;-45
2021/04/26 02:35:56;;;;;;;;;;;19.80;38.20;;;;;;505834;235;2129;-45
2021/04/26 02:37:57;;;;;;;;;;;19.80;38.00;;;;;;505606;235;1085;-45
2021/04/26 02:39:59;;;;;;;;;;;19.90;37.90;;;;;;505854;234;1073;-45
2021/04/26 02:42:00;;;;;;;;;;;19.90;37.80;;;;;;505252;235;1054;-45
2021/04/26 02:44:01;;;;;;;;;;;20.00;37.70;;;;;;505714;235;1049;-45
2021/04/26 02:46:03;;;;;;;;;;;20.00;37.70;;;;;;505343;235;1276;-45
2021/04/26 02:48:04;;;;;;;;;;;20.00;37.60;;;;;;505704;235;1020;-45
2021/04/26 02:50:05;;;;;;;;;;;20.10;37.50;;;;;;505331;235;1281;-45
2021/04/26 02:52:06;;;;;;;;;;;20.10;37.50;;;;;;505477;235;1026;-45
2021/04/26 02:54:08;;;;;;;;;;;20.10;37.40;;;;;;505405;235;1026;-46
2021/04/26 02:56:09;;;;;;;;;;;20.20;37.40;;;;;;505357;235;2118;-45
2021/04/26 02:58:10;;;;;;;;;;;20.20;37.40;;;;;;505360;235;1035;-45
2021/04/26 03:00:11;;;;;;;;;;;20.20;37.30;;;;;;505710;235;1230;-45
2021/04/26 03:02:13;;;;;;;;;;;20.20;37.30;;;;;;505593;235;1169;-45
2021/04/26 03:04:14;;;;;;;;;;;20.30;37.30;;;;;;505378;235;1015;-45
2021/04/26 03:06:15;;;;;;;;;;;20.30;37.30;;;;;;505272;235;1181;-45
2021/04/26 03:08:17;;;;;;;;;;;20.30;37.20;;;;;;505397;235;1100;-45
2021/04/26 03:10:18;;;;;;;;;;;20.30;37.10;;;;;;505469;235;1151;-45
2021/04/26 03:12:19;;;;;;;;;;;20.40;37.20;;;;;;505344;235;1146;-45
2021/04/26 03:14:20;;;;;;;;;;;20.40;37.10;;;;;;505873;235;977;-45
2021/04/26 03:16:22;;;;;;;;;;;20.40;37.10;;;;;;505498;235;2186;-45
2021/04/26 03:18:23;;;;;;;;;;;20.40;37.10;;;;;;505686;235;1072;-45
2021/04/26 03:20:24;;;;;;;;;;;20.40;37.00;;;;;;505900;235;1069;-45
2021/04/26 03:22:26;;;;;;;;;;;20.40;36.90;;;;;;505374;235;1061;-45
2021/04/26 03:24:27;;;;;;;;;;;20.50;36.90;;;;;;505417;235;1049;-45
2021/04/26 03:26:28;;;;;;;;;;;20.50;37.00;;;;;;505783;235;1065;-45
2021/04/26 03:28:29;;;;;;;;;;;20.50;37.00;;;;;;505335;235;1037;-45
2021/04/26 03:30:31;;;;;;;;;;;20.50;36.90;;;;;;505284;235;1496;-45
2021/04/26 03:32:32;;;;;;;;;;;20.50;36.90;;;;;;505749;235;1123;-45
2021/04/26 03:34:33;;;;;;;;;;;20.50;36.80;;;;;;505401;235;1042;-45
2021/04/26 03:36:34;;;;;;;;;;;20.50;36.90;;;;;;505524;235;2184;-45
2021/04/26 03:38:36;;;;;;;;;;;20.60;36.80;;;;;;505374;235;1092;-45
2021/04/26 03:40:37;;;;;;;;;;;20.60;36.80;;;;;;505326;235;1061;-45
2021/04/26 03:42:38;;;;;;;;;;;20.60;36.80;;;;;;505870;235;1046;-45
2021/04/26 03:44:40;;;;;;;;;;;20.60;36.70;;;;;;505755;235;1369;-45
2021/04/26 03:46:41;;;;;;;;;;;20.60;36.70;;;;;;505462;235;1150;-45
2021/04/26 03:48:42;;;;;;;;;;;20.60;36.70;;;;;;505330;235;979;-45
2021/04/26 03:50:43;;;;;;;;;;;20.60;36.70;;;;;;505836;235;1240;-45
2021/04/26 03:52:45;;;;;;;;;;;20.70;36.70;;;;;;505571;235;1382;-45
2021/04/26 03:54:46;;;;;;;;;;;20.70;36.70;;;;;;505821;235;1135;-45
2021/04/26 03:56:47;;;;;;;;;;;20.70;36.70;;;;;;505762;235;2169;-45
2021/04/26 03:58:49;;;;;;;;;;;20.70;36.70;;;;;;505871;235;1037;-45
2021/04/26 04:00:50;;;;;;;;;;;20.70;36.70;;;;;;505361;235;1154;-45
2021/04/26 04:02:51;;;;;;;;;;;20.70;36.70;;;;;;505425;235;1059;-45
2021/04/26 04:04:52;;;;;;;;;;;20.70;36.60;;;;;;505548;235;1040;-45
2021/04/26 04:06:54;;;;;;;;;;;20.70;36.60;;;;;;505743;235;1039;-45
2021/04/26 04:08:55;;;;;;;;;;;20.80;36.70;;;;;;505915;235;1186;-45
2021/04/26 04:10:56;;;;;;;;;;;20.80;36.60;;;;;;505870;235;1025;-45
2021/04/26 04:12:58;;;;;;;;;;;20.80;36.50;;;;;;505906;235;1011;-45
2021/04/26 04:14:59;;;;;;;;;;;20.80;36.50;;;;;;505870;235;1052;-45
2021/04/26 04:17:00;;;;;;;;;;;20.80;36.50;;;;;;505411;235;2451;-45
2021/04/26 04:19:01;;;;;;;;;;;20.80;36.50;;;;;;505490;235;1063;-45
2021/04/26 04:21:03;;;;;;;;;;;20.80;36.50;;;;;;505802;235;1080;-45
2021/04/26 04:23:04;;;;;;;;;;;20.80;36.50;;;;;;505785;235;1054;-45
2021/04/26 04:25:05;;;;;;;;;;;20.90;36.50;;;;;;505745;235;996;-45
2021/04/26 04:27:07;;;;;;;;;;;20.90;36.50;;;;;;505248;235;1076;-45
2021/04/26 04:29:08;;;;;;;;;;;20.90;36.40;;;;;;505338;235;1185;-45
2021/04/26 04:31:09;;;;;;;;;;;20.90;36.50;;;;;;505648;235;1206;-45
2021/04/26 04:33:10;;;;;;;;;;;20.90;36.40;;;;;;505566;235;1006;-45
2021/04/26 04:35:12;;;;;;;;;;;20.90;36.40;;;;;;505483;235;1000;-45
2021/04/26 04:37:13;;;;;;;;;;;20.90;36.40;;;;;;505249;235;2188;-45
2021/04/26 04:39:14;;;;;;;;;;;20.90;36.40;;;;;;505837;235;1130;-45
2021/04/26 04:41:15;;;;;;;;;;;20.90;36.40;;;;;;505404;235;1048;-45
2021/04/26 04:43:17;;;;;;;;;;;20.90;36.40;;;;;;505602;235;1025;-45
2021/04/26 04:45:19;;;;;;;;;;;20.90;36.40;;;;;;505456;235;1040;-45
2021/04/26 04:47:19;;;;;;;;;;;20.90;36.40;;;;;;505058;235;2030;-45
2021/04/26 04:49:21;;;;;;;;;;;21.00;36.40;;;;;;505736;235;1045;-45
2021/04/26 04:51:22;;;;;;;;;;;21.00;36.40;;;;;;505767;235;990;-45
2021/04/26 04:53:23;;;;;;;;;;;21.00;36.30;;;;;;505389;235;991;-45
2021/04/26 04:55:25;;;;;;;;;;;21.00;36.40;;;;;;505200;235;970;-45
2021/04/26 04:57:26;;;;;;;;;;;21.00;36.40;;;;;;505674;235;2134;-45
2021/04/26 04:59:27;;;;;;;;;;;21.00;36.40;;;;;;505289;235;1080;-45
2021/04/26 05:01:28;;;;;;;;;;;21.00;36.40;;;;;;505426;235;1056;-45
2021/04/26 05:03:30;;;;;;;;;;;21.00;36.40;;;;;;505305;235;1183;-45
2021/04/26 05:05:31;;;;;;;;;;;21.00;36.30;;;;;;505404;235;1053;-45
2021/04/26 05:07:32;;;;;;;;;;;21.00;36.30;;;;;;505440;234;1048;-45
2021/04/26 05:09:33;;;;;;;;;;;21.00;36.30;;;;;;505392;235;1089;-45
2021/04/26 05:11:35;;;;;;;;;;;21.10;36.30;;;;;;505349;235;1078;-45
2021/04/26 05:13:36;;;;;;;;;;;21.00;36.30;;;;;;505178;235;1063;-45
2021/04/26 05:15:37;;;;;;;;;;;21.10;36.30;;;;;;505243;235;1070;-45
2021/04/26 05:17:39;;;;;;;;;;;21.10;36.30;;;;;;505194;235;2131;-45
2021/04/26 05:19:40;;;;;;;;;;;21.10;36.20;;;;;;505287;235;1084;-45
2021/04/26 05:21:41;;;;;;;;;;;21.10;36.20;;;;;;505076;235;1305;-45
2021/04/26 05:23:42;;;;;;;;;;;21.10;36.30;;;;;;505498;235;1162;-45
2021/04/26 05:25:44;;;;;;;;;;;21.10;36.20;;;;;;505155;235;1048;-45
2021/04/26 05:27:45;;;;;;;;;;;21.10;36.20;;;;;;505325;235;1042;-45
2021/04/26 05:29:47;;;;;;;;;;;21.10;36.20;;;;;;505176;235;1177;-45
2021/04/26 05:31:48;;;;;;;;;;;21.10;36.20;;;;;;505241;235;1077;-45
2021/04/26 05:33:49;;;;;;;;;;;21.20;36.20;;;;;;505076;235;1178;-45
2021/04/26 05:35:51;;;;;;;;;;;21.10;36.20;;;;;;505467;235;1055;-45
2021/04/26 05:37:52;;;;;;;;;;;21.20;36.20;;;;;;505091;235;2127;-45
2021/04/26 05:39:53;;;;;;;;;;;21.10;36.20;;;;;;505413;235;1101;-46
2021/04/26 05:41:54;;;;;;;;;;;21.10;36.20;;;;;;505055;235;1152;-45
2021/04/26 05:43:56;;;;;;;;;;;21.20;36.20;;;;;;505244;235;1071;-45
2021/04/26 05:45:57;;;;;;;;;;;21.20;36.20;;;;;;505023;235;1097;-45
2021/04/26 05:47:58;;;;;;;;;;;21.20;36.20;;;;;;504901;235;1143;-45
2021/04/26 05:50:00;;;;;;;;;;;21.20;36.20;;;;;;504969;235;1077;-45
2021/04/26 05:52:01;;;;;;;;;;;21.20;36.20;;;;;;504927;235;1082;-45
2021/04/26 05:54:02;;;;;;;;;;;21.20;36.20;;;;;;505257;235;1104;-45
2021/04/26 05:56:03;;;;;;;;;;;21.20;36.20;;;;;;505029;235;1057;-45
2021/04/26 05:58:05;;;;;;;;;;;21.20;36.10;;;;;;505309;235;2185;-45
2021/04/26 06:00:06;;;;;;;;;;;21.20;36.10;;;;;;505082;235;1076;-45
2021/04/26 06:02:07;;;;;;;;;;;21.20;36.20;;;;;;505058;235;1091;-45
2021/04/26 06:04:08;;;;;;;;;;;21.20;36.10;;;;;;505036;234;1175;-45
2021/04/26 06:06:10;;;;;;;;;;;21.20;36.10;;;;;;504968;234;1115;-45
2021/04/26 06:08:11;;;;;;;;;;;21.20;36.10;;;;;;504782;235;1129;-45
2021/04/26 06:10:12;;;;;;;;;;;21.20;36.10;;;;;;504969;235;1454;-45
2021/04/26 06:12:14;;;;;;;;;;;21.20;36.10;;;;;;505210;235;1101;-45
2021/04/26 06:14:15;;;;;;;;;;;21.20;36.10;;;;;;505009;235;1047;-45
2021/04/26 06:16:16;;;;;;;;;;;21.20;36.20;;;;;;504777;235;1105;-45
2021/04/26 06:18:18;;;;;;;;;;;21.20;36.10;;;;;;504834;235;2170;-45
2021/04/26 06:20:19;;;;;;;;;;;21.20;36.10;;;;;;504947;235;1112;-45
2021/04/26 06:22:20;;;;;;;;;;;21.20;36.10;;;;;;504742;235;1081;-45
2021/04/26 06:24:21;;;;;;;;;;;21.20;36.10;;;;;;504859;235;1047;-45
2021/04/26 06:26:22;;;;;;;;;;;21.20;36.10;;;;;;504813;235;1172;-45
2021/04/26 06:28:24;;;;;;;;;;;21.20;36.10;;;;;;504895;235;1127;-45
2021/04/26 06:30:25;;;;;;;;;;;21.20;36.10;;;;;;505024;235;1105;-45
2021/04/26 06:32:26;;;;;;;;;;;21.20;36.10;;;;;;505029;235;1084;-45
2021/04/26 06:34:28;;;;;;;;;;;21.30;36.10;;;;;;504874;235;1404;-45
2021/04/26 06:36:29;;;;;;;;;;;21.20;36.10;;;;;;504860;235;1113;-45
2021/04/26 06:38:31;;;;;;;;;;;21.30;36.10;;;;;;504766;235;2190;-45
2021/04/26 06:40:31;;;;;;;;;;;21.30;36.10;;;;;;504747;235;2162;-46
2021/04/26 06:42:33;;;;;;;;;;;21.30;36.10;;;;;;504666;235;1115;-45
2021/04/26 06:44:34;;;;;;;;;;;21.30;36.10;;;;;;504647;235;1098;-45
2021/04/26 06:46:35;;;;;;;;;;;21.30;36.10;;;;;;504765;235;1117;-45
2021/04/26 06:48:36;;;;;;;;;;;21.30;36.10;;;;;;504913;235;1136;-45
2021/04/26 06:50:38;;;;;;;;;;;21.20;36.10;;;;;;504748;235;1086;-45
2021/04/26 06:52:39;;;;;;;;;;;21.20;36.10;;;;;;504663;235;1291;-45
2021/04/26 06:54:40;;;;;;;;;;;21.30;36.10;;;;;;500173;234;5470;-45
2021/04/26 06:56:42;;;;;;;;;;;21.30;36.10;;;;;;487229;243;5631;-45
2021/04/26 06:58:43;;;;;;;;;;;21.30;36.10;;;;;;490222;243;2137;-45
2021/04/26 07:00:45;;;;;;;;;;;21.30;36.10;;;;;;490085;243;1091;-45
2021/04/26 07:02:46;;;;;;;;;;;21.30;36.10;;;;;;490050;243;1080;-45
2021/04/26 07:04:47;;;;;;;;;;;21.30;36.10;;;;;;489943;243;1197;-45
2021/04/26 07:06:49;;;;;;;;;;;21.30;36.00;;;;;;489920;243;1110;-45
2021/04/26 07:08:50;;;;;;;;;;;21.30;36.10;;;;;;489989;243;1153;-45
2021/04/26 07:10:51;;;;;;;;;;;21.30;36.00;;;;;;489945;243;1358;-45
2021/04/26 07:12:53;;;;;;;;;;;21.30;36.00;;;;;;490039;243;1115;-45
2021/04/26 07:14:54;;;;;;;;;;;21.30;36.00;;;;;;489973;243;1155;-45
2021/04/26 07:16:55;;;;;;;;;;;21.30;36.00;;;;;;489891;243;1289;-45
2021/04/26 07:18:57;;;;;;;;;;;21.30;36.00;;;;;;489941;243;2109;-45
2021/04/26 07:20:58;;;;;;;;;;;21.30;36.00;;;;;;489953;243;1182;-45
2021/04/26 07:22:59;;;;;;;;;;;21.30;36.10;;;;;;490033;243;1194;-45
2021/04/26 07:25:01;;;;;;;;;;;21.30;36.00;;;;;;489944;243;1144;-45
2021/04/26 07:27:02;;;;;;;;;;;21.30;36.00;;;;;;489930;243;1125;-45
2021/04/26 07:29:03;;;;;;;;;;;21.30;36.10;;;;;;489970;243;1107;-45
2021/04/26 07:31:05;;;;;;;;;;;21.30;36.00;;;;;;490017;243;1223;-45
2021/04/26 07:33:06;;;;;;;;;;;21.30;36.00;;;;;;489926;243;1241;-45
2021/04/26 07:35:10;;;;;;;;;;;21.40;36.10;;;;;;490016;243;1220;-45
2021/04/26 07:37:09;;;;;;;;;;;21.40;36.10;;;;;;489679;243;2191;-45
2021/04/26 07:39:10;;;;;;;;;;;21.40;36.00;;;;;;489983;243;1231;-46
2021/04/26 07:41:12;;;;;;;;;;;21.30;36.00;;;;;;490139;243;1225;-45
2021/04/26 07:43:13;;;;;;;;;;;21.30;36.00;;;;;;490038;243;1289;-45
2021/04/26 07:45:19;;;;;;;;;;;21.40;36.10;;;;;;489972;243;1180;-45
2021/04/26 07:47:16;;;;;;;;;;;21.40;36.00;;;;;;489567;243;2314;-45
2021/04/26 07:49:17;;;;;;;;;;;21.40;36.00;;;;;;490039;242;1318;-45
2021/04/26 07:51:18;;;;;;;;;;;21.40;36.00;;;;;;490554;240;1367;-45
2021/04/26 07:53:20;;;;;;;;;;;21.40;36.00;;;;;;490111;243;1323;-45
2021/04/26 07:55:21;;;;;;;;;;;21.40;36.00;;;;;;490109;243;1167;-45
2021/04/26 07:57:23;;;;;;;;;;;21.40;36.00;;;;;;489933;243;2245;-45
2021/04/26 07:59:24;;;;;;;;;;;21.40;35.90;;;;;;489925;243;1104;-45
2021/04/26 08:01:25;;;;;;;;;;;21.40;36.00;;;;;;490073;243;1163;-45
2021/04/26 08:03:27;;;;;;;;;;;21.40;35.90;;;;;;489962;243;1146;-45
2021/04/26 08:05:28;;;;;;;;;;;21.40;36.00;;;;;;490085;243;2243;-46
2021/04/26 08:07:29;;;;;;;;;;;21.50;36.00;;;;;;490043;243;1117;-45
2021/04/26 08:09:30;;;;;;;;;;;21.40;36.00;;;;;;490068;243;1163;-45
2021/04/26 08:11:32;;;;;;;;;;;21.50;35.90;;;;;;490024;243;1101;-45
2021/04/26 08:13:33;;;;;;;;;;;21.40;36.00;;;;;;490001;243;1401;-45
2021/04/26 08:15:34;;;;;;;;;;;20.90;36.70;;;;;;489965;243;1152;-45
2021/04/26 08:17:35;;;;;;;;;;;20.50;37.60;;;;;;489954;243;2188;-45
2021/04/26 08:19:37;;;;;;;;;;;20.10;38.30;;;;;;489253;243;1141;-45
2021/04/26 08:21:38;;;;;;;;;;;19.90;38.90;;;;;;489991;243;1087;-45
2021/04/26 08:23:42;;;;;;;;;;;19.70;39.30;;;;;;490079;243;1094;-45
2021/04/26 08:25:40;;;;;;;;;;;19.50;39.50;;;;;;489986;243;2301;-45
2021/04/26 08:27:42;;;;;;;;;;;19.50;39.70;;;;;;490114;243;1128;-45
2021/04/26 08:29:43;;;;;;;;;;;19.40;39.90;;;;;;489949;243;1109;-45
2021/04/26 08:31:44;;;;;;;;;;;19.40;40.00;;;;;;489844;243;1102;-45
2021/04/26 08:33:46;;;;;;;;;;;19.30;40.20;;;;;;490007;243;1079;-45
2021/04/26 08:35:47;;;;;;;;;;;19.20;40.20;;;;;;489762;243;1340;-45
2021/04/26 08:37:48;;;;;;;;;;;19.10;40.30;;;;;;489864;243;2192;-45
2021/04/26 08:39:49;;;;;;;;;;;19.10;40.40;;;;;;489236;243;1155;-45
2021/04/26 08:41:51;;;;;;;;;;;19.10;40.50;;;;;;489956;243;1137;-45
2021/04/26 08:43:52;;;;;;;;;;;19.00;40.60;;;;;;490022;243;1082;-45
2021/04/26 08:45:55;;;;;;;;;;;19.00;40.70;;;;;;490057;243;1074;-45
2021/04/26 08:47:55;;;;;;;;;;;19.00;40.70;;;;;;490160;243;2407;-45
2021/04/26 08:49:58;;;;;;;;;;;18.90;40.80;;;;;;489938;243;1163;-44
2021/04/26 08:54:08;;;;;;;;;;;18.90;40.80;;;;;;476890;242;2668;-47
2021/04/26 08:56:09;;;;;;;;;;;18.80;40.90;;;;;;486374;244;1072;-47
2021/04/26 08:58:11;;;;;;;;;;;18.80;40.90;;;;;;486634;244;2206;-46
2021/04/26 09:00:12;;;;;;;;;;;18.80;40.90;;;;;;486460;243;1190;-46
2021/04/26 09:02:13;;;;;;;;;;;18.80;40.90;;;;;;486427;244;1475;-46
2021/04/26 09:04:15;;;;;;;;;;;18.80;40.90;;;;;;486536;244;1095;-46
2021/04/26 09:06:16;;;;;;;;;;;18.80;40.90;;;;;;486644;242;1416;-44
2021/04/26 09:08:17;;;;;;;;;;;18.80;40.90;;;;;;486657;244;1182;-44
2021/04/26 09:10:18;;;;;;;;;;;18.80;40.90;;;;;;486371;240;1358;-44
2021/04/26 09:12:20;;;;;;;;;;;18.80;40.80;;;;;;486709;240;1139;-44
2021/04/26 09:14:21;;;;;;;;;;;18.80;40.90;;;;;;486596;244;1100;-44
2021/04/26 09:16:22;;;;;;;;;;;18.70;40.90;;;;;;486622;243;1172;-44
2021/04/26 09:18:24;;;;;;;;;;;18.70;40.90;;;;;;486698;244;2148;-44
2021/04/26 09:20:25;;;;;;;;;;;18.70;41.00;;;;;;486568;244;1093;-44
2021/04/26 09:22:26;;;;;;;;;;;18.70;40.90;;;;;;486550;244;1155;-44
2021/04/26 09:24:28;;;;;;;;;;;18.70;40.90;;;;;;486496;244;1188;-44
2021/04/26 09:26:29;;;;;;;;;;;18.70;41.00;;;;;;486441;244;1134;-44
2021/04/26 09:28:31;;;;;;;;;;;18.60;41.00;;;;;;486508;244;1419;-44
2021/04/26 09:30:32;;;;;;;;;;;18.70;41.00;;;;;;486541;244;1210;-44
2021/04/26 09:32:33;;;;;;;;;;;18.70;41.00;;;;;;486581;244;1083;-44
2021/04/26 09:34:34;;;;;;;;;;;18.60;41.00;;;;;;486644;244;1107;-44
2021/04/26 09:36:40;;;;;;;;;;;18.60;41.10;;;;;;486736;244;1105;-44
2021/04/26 09:38:39;;;;;;;;;;;18.50;41.00;;;;;;486396;243;2214;-44
2021/04/26 09:40:38;;;;;;;;;;;18.60;41.10;;;;;;486582;243;1416;-44
2021/04/26 09:42:40;;;;;;;;;;;18.50;41.10;;;;;;486793;244;1108;-44
2021/04/26 09:44:41;;;;;;;;;;;18.50;41.20;;;;;;486520;244;1073;-44
2021/04/26 09:46:42;;;;;;;;;;;18.60;41.10;;;;;;486566;244;1122;-44
2021/04/26 09:48:43;;;;;;;;;;;18.50;41.10;;;;;;486494;244;1074;-44
2021/04/26 09:50:45;;;;;;;;;;;18.50;41.20;;;;;;486734;244;1144;-44
2021/04/26 09:52:46;;;;;;;;;;;18.50;41.20;;;;;;486653;244;1112;-44
2021/04/26 09:54:47;;;;;;;;;;;18.50;41.20;;;;;;486669;244;1196;-44
2021/04/26 09:56:48;;;;;;;;;;;18.50;41.10;;;;;;486552;244;1100;-44
2021/04/26 09:58:51;;;;;;;;;;;18.50;41.10;;;;;;486433;244;2197;-44
2021/04/26 10:00:52;;;;;;;;;;;18.50;41.00;;;;;;486442;244;1109;-44
2021/04/26 10:02:53;;;;;;;;;;;18.50;41.10;;;;;;486478;243;1103;-44
2021/04/26 10:04:54;;;;;;;;;;;18.50;41.10;;;;;;486796;243;1093;-44
2021/04/26 10:06:56;;;;;;;;;;;18.40;41.10;;;;;;486774;243;1087;-45
2021/04/26 10:08:58;;;;;;;;;;;18.40;41.20;;;;;;486738;244;1144;-44
2021/04/26 10:10:59;;;;;;;;;;;18.40;41.20;;;;;;485623;244;1144;-44
2021/04/26 10:13:00;;;;;;;;;;;18.40;41.20;;;;;;486337;244;1126;-44
2021/04/26 10:15:02;;;;;;;;;;;18.40;41.20;;;;;;486505;243;1118;-44
2021/04/26 10:17:03;;;;;;;;;;;18.40;41.20;;;;;;486393;244;1086;-44
2021/04/26 10:19:05;;;;;;;;;;;18.40;41.20;;;;;;486495;244;2213;-44
2021/04/26 10:21:05;;;;;;;;;;;18.40;41.20;;;;;;486711;243;1121;-44
2021/04/26 10:23:07;;;;;;;;;;;18.40;41.20;;;;;;486708;244;1156;-44
2021/04/26 10:25:08;;;;;;;;;;;18.40;41.20;;;;;;486751;244;1226;-44
2021/04/26 10:27:09;;;;;;;;;;;18.40;41.20;;;;;;486636;244;1139;-44
2021/04/26 10:29:10;;;;;;;;;;;18.40;41.10;;;;;;486732;244;1084;-44
2021/04/26 10:31:13;;;;;;;;;;;18.30;41.20;;;;;;486713;244;1325;-44
2021/04/26 10:33:13;;;;;;;;;;;18.30;41.20;;;;;;486756;243;2288;-44
2021/04/26 10:35:15;;;;;;;;;;;18.40;41.20;;;;;;486665;244;1526;-44
2021/04/26 10:37:16;;;;;;;;;;;18.40;41.30;;;;;;486594;244;1239;-44
2021/04/26 10:39:17;;;;;;;;;;;18.30;41.20;;;;;;486663;244;2155;-44
2021/04/26 10:41:18;;;;;;;;;;;18.30;41.20;;;;;;486730;243;1351;-44
2021/04/26 10:43:20;;;;;;;;;;;18.40;41.20;;;;;;486777;244;1162;-44
2021/04/26 10:45:21;;;;;;;;;;;18.40;41.20;;;;;;486459;244;1080;-44
2021/04/26 10:47:23;;;;;;;;;;;18.40;41.20;;;;;;486494;244;1318;-44
2021/04/26 10:49:23;;;;;;;;;;;18.30;41.20;;;;;;486485;244;1432;-44
2021/04/26 10:51:25;;;;;;;;;;;18.30;41.10;;;;;;486297;244;1157;-44
2021/04/26 10:53:26;;;;;;;;;;;18.30;41.20;;;;;;486288;244;1072;-44
2021/04/26 10:55:27;;;;;;;;;;;18.30;41.20;;;;;;486373;243;1186;-44
2021/04/26 10:57:28;;;;;;;;;;;18.30;41.10;;;;;;486358;244;1110;-44
2021/04/26 10:59:30;;;;;;;;;;;18.30;41.20;;;;;;486578;244;2206;-44
2021/04/26 11:01:31;;;;;;;;;;;18.30;41.20;;;;;;486696;243;1084;-44
2021/04/26 11:03:32;;;;;;;;;;;18.30;41.20;;;;;;486607;244;1065;-44
2021/04/26 11:05:34;;;;;;;;;;;18.30;41.30;;;;;;486689;244;1140;-44
2021/04/26 11:07:35;;;;;;;;;;;18.30;41.30;;;;;;486495;244;1094;-44
2021/04/26 11:09:38;;;;;;;;;;;18.20;41.30;;;;;;486632;236;1512;-44
2021/04/26 11:11:44;;;;;;;;;;;18.30;41.30;;;;;;486536;244;2257;-44
2021/04/26 11:13:43;;;;;;;;;;;18.20;41.20;;;;;;486535;244;1274;-44
2021/04/26 11:15:44;;;;;;;;;;;18.20;41.20;;;;;;486713;244;1237;-44
2021/04/26 11:17:45;;;;;;;;;;;18.30;41.30;;;;;;486723;244;1110;-44
2021/04/26 11:19:46;;;;;;;;;;;18.30;41.20;;;;;;486562;240;2199;-44
2021/04/26 11:21:48;;;;;;;;;;;18.20;41.30;;;;;;486651;243;1162;-44
2021/04/26 11:23:49;;;;;;;;;;;18.20;41.20;;;;;;486650;244;1076;-44
2021/04/26 11:25:50;;;;;;;;;;;18.20;41.20;;;;;;486693;243;1184;-44
2021/04/26 11:27:52;;;;;;;;;;;18.20;41.20;;;;;;486709;244;1125;-44
2021/04/26 11:29:53;;;;;;;;;;;18.20;41.20;;;;;;486848;243;1133;-44
2021/04/26 11:31:54;;;;;;;;;;;18.20;41.20;;;;;;486726;244;2289;-44
2021/04/26 11:33:56;;;;;;;;;;;18.20;41.30;;;;;;486762;244;1100;-44
2021/04/26 11:35:57;;;;;;;;;;;18.20;41.30;;;;;;486899;244;1127;-44
2021/04/26 11:37:58;;;;;;;;;;;18.20;41.30;;;;;;486580;244;1137;-44
2021/04/26 11:40:00;;;;;;;;;;;18.20;41.30;;;;;;486642;243;2198;-44
2021/04/26 11:42:01;;;;;;;;;;;18.20;41.30;;;;;;486655;244;1095;-46
2021/04/26 11:44:02;;;;;;;;;;;18.20;41.30;;;;;;486739;243;1083;-46
2021/04/26 11:46:03;;;;;;;;;;;18.20;41.30;;;;;;486760;244;1095;-46
2021/04/26 11:48:05;;;;;;;;;;;18.20;41.20;;;;;;486859;244;1131;-46
2021/04/26 11:50:06;;;;;;;;;;;18.20;41.20;;;;;;486769;244;1086;-46
2021/04/26 11:52:07;;;;;;;;;;;18.20;41.20;;;;;;486819;243;1496;-46
2021/04/26 11:54:08;;;;;;;;;;;18.20;41.20;;;;;;486815;243;1109;-44
2021/04/26 11:56:10;;;;;;;;;;;18.20;41.20;;;;;;486539;243;1135;-44
2021/04/26 11:58:11;;;;;;;;;;;18.20;41.20;;;;;;486389;244;1039;-44